Time;durP1;ratioP1;P1;durP2;ratioP2;P2;SDS_P1;SDS_P2;PMS_P1;PMS_P2;Temp;Humidity;BMP_temperature;BMP_pressure;BME280_temperature;BME280_humidity;BME280_pressure;Samples;Min_cycle;Max_cycle;Signal;HPM_P1;HPM_P2
2022/08/18 00:01:15;;;;;;;7.40;4.13;;;;;;;25.42;51.73;97856.44;5091780;28;20172;-58
2022/08/18 00:03:43;;;;;;;4.90;4.13;;;;;;;25.31;52.09;97859.72;5091494;28;20179;-58
2022/08/18 00:06:08;;;;;;;4.53;4.13;;;;;;;25.16;52.05;97819.44;5091718;28;20175;-58
2022/08/18 00:08:33;;;;;;;6.60;3.90;;;;;;;25.44;51.94;97853.56;5095338;28;20192;-58
2022/08/18 00:10:59;;;;;;;4.88;4.30;;;;;;;25.39;51.82;97856.88;5095062;28;20229;-58
2022/08/18 00:13:25;;;;;;;4.07;3.67;;;;;;;25.36;52.17;97854.63;5095295;28;20251;-58
2022/08/18 00:15:50;;;;;;;5.75;4.10;;;;;;;25.29;52.12;97856.50;5095294;28;20667;-58
2022/08/18 00:18:16;;;;;;;4.43;4.13;;;;;;;25.18;52.31;97854.47;5094971;28;20178;-58
2022/08/18 00:20:41;;;;;;;4.13;3.78;;;;;;;25.23;52.39;97864.44;5095164;28;20230;-58
2022/08/18 00:23:07;;;;;;;4.47;4.10;;;;;;;25.14;52.47;97849.81;5094759;28;20168;-57
2022/08/18 00:25:33;;;;;;;4.28;3.88;;;;;;;25.23;52.48;97867.91;5095099;28;20230;-58
2022/08/18 00:27:58;;;;;;;4.95;4.20;;;;;;;25.16;52.83;97863.66;5094774;28;20644;-57
2022/08/18 00:30:23;;;;;;;7.25;4.00;;;;;;;25.11;52.84;97864.28;5094919;28;20287;-57
2022/08/18 00:32:52;;;;;;;4.88;4.07;;;;;;;25.04;53.02;97868.78;5094647;28;20600;-58
2022/08/18 00:35:19;;;;;;;5.13;4.47;;;;;;;24.92;53.55;97859.06;5094602;28;20680;-57
2022/08/18 00:37:47;;;;;;;5.85;3.83;;;;;;;24.93;53.72;97860.66;5094533;28;20646;-58
2022/08/18 00:40:18;;;;;;;4.57;4.10;;;;;;;24.89;53.78;97860.28;5094557;28;20216;-58
2022/08/18 00:42:56;;;;;;;6.63;4.45;;;;;;;24.77;53.79;97856.66;5094817;28;20180;-58
2022/08/18 00:45:41;;;;;;;5.07;4.20;;;;;;;24.87;53.64;97854.38;5094453;28;20155;-58
2022/08/18 00:48:09;;;;;;;4.40;4.10;;;;;;;24.91;53.92;97862.72;5094692;28;20156;-57
2022/08/18 00:50:53;;;;;;;6.50;3.88;;;;;;;24.84;53.82;97862.72;5094520;28;20191;-58
2022/08/18 00:53:45;;;;;;;4.40;4.00;;;;;;;24.78;53.94;97876.00;5094046;28;20226;-58
2022/08/18 00:56:23;;;;;;;4.90;4.10;;;;;;;24.67;54.63;97858.91;5094066;28;20188;-57
2022/08/18 00:58:58;;;;;;;4.25;3.97;;;;;;;24.73;54.45;97866.00;5094103;28;20636;-57
2022/08/18 01:01:27;;;;;;;4.72;4.10;;;;;;;24.62;55.09;97864.00;5094723;28;20625;-57
2022/08/18 01:03:59;;;;;;;5.50;4.30;;;;;;;24.61;54.93;97857.06;5094339;28;20224;-57
2022/08/18 01:06:39;;;;;;;6.60;4.13;;;;;;;24.80;54.41;97858.88;5094081;28;20186;-57
2022/08/18 01:09:07;;;;;;;4.78;4.30;;;;;;;24.88;53.80;97850.72;5094141;28;20187;-58
2022/08/18 01:11:35;;;;;;;4.40;4.10;;;;;;;25.16;53.25;97861.81;5094198;28;20236;-58
2022/08/18 01:14:02;;;;;;;4.13;3.60;;;;;;;25.29;52.68;97867.09;5094118;28;20176;-58
2022/08/18 01:22:06;;;;;;;4.50;3.92;;;;;;;25.39;52.65;97854.22;5094005;28;20167;-58
2022/08/18 01:27:20;;;;;;;3.80;3.50;;;;;;;25.34;52.62;97851.38;5094198;28;20155;-58
2022/08/18 01:29:48;;;;;;;7.00;3.72;;;;;;;25.42;52.38;97856.44;5093814;28;20196;-58
2022/08/18 01:32:18;;;;;;;4.45;3.75;;;;;;;25.44;52.41;97865.00;5093553;28;20171;-58
2022/08/18 01:34:46;;;;;;;5.28;3.70;;;;;;;25.42;52.47;97861.72;5093757;28;20164;-58
2022/08/18 01:37:14;;;;;;;5.40;3.80;;;;;;;25.34;52.69;97858.50;5093417;28;20178;-57
2022/08/18 01:39:40;;;;;;;4.72;4.18;;;;;;;25.25;53.26;97860.56;5093394;28;20217;-58
2022/08/18 01:42:05;;;;;;;4.68;4.00;;;;;;;25.26;53.11;97864.84;5093369;28;20628;-57
2022/08/18 01:44:32;;;;;;;4.38;4.00;;;;;;;25.17;53.51;97852.03;5093283;28;20171;-57
2022/08/18 01:46:57;;;;;;;4.10;3.80;;;;;;;25.04;53.92;97852.09;5093468;28;20207;-58
2022/08/18 01:49:23;;;;;;;4.60;4.13;;;;;;;24.94;54.33;97862.28;5093402;28;20219;-57
2022/08/18 01:51:48;;;;;;;4.47;4.18;;;;;;;24.83;54.57;97863.75;5092990;28;20602;-57
2022/08/18 01:54:14;;;;;;;4.90;4.28;;;;;;;24.70;54.69;97860.31;5093072;28;20160;-58
2022/08/18 01:56:41;;;;;;;4.70;4.40;;;;;;;24.62;55.05;97863.19;5093109;28;20255;-57
2022/08/18 01:59:12;;;;;;;7.53;4.60;;;;;;;24.60;55.35;97876.63;5093000;28;20167;-57
2022/08/18 02:01:40;;;;;;;6.22;4.25;;;;;;;24.54;55.28;97868.66;5093319;28;20160;-58
2022/08/18 02:04:06;;;;;;;5.10;4.45;;;;;;;24.45;55.79;97868.03;5092906;28;20617;-58
2022/08/18 02:06:32;;;;;;;4.70;4.07;;;;;;;24.36;56.01;97855.25;5092874;28;20172;-58
2022/08/18 02:08:57;;;;;;;4.68;4.20;;;;;;;24.33;56.41;97859.09;5093053;28;20256;-58
2022/08/18 02:11:23;;;;;;;4.53;4.10;;;;;;;24.27;56.54;97844.06;5093252;28;20259;-58
2022/08/18 02:13:48;;;;;;;4.13;3.72;;;;;;;24.33;56.61;97856.47;5092717;28;20190;-58
2022/08/18 02:16:15;;;;;;;7.45;4.07;;;;;;;24.34;56.86;97836.97;5093292;28;20206;-58
2022/08/18 02:18:41;;;;;;;5.00;4.53;;;;;;;24.42;56.80;97857.06;5092677;28;20216;-58
2022/08/18 02:21:13;;;;;;;5.85;4.43;;;;;;;24.36;57.33;97860.53;5092666;28;20175;-58
2022/08/18 02:23:40;;;;;;;5.55;4.20;;;;;;;24.39;57.25;97858.28;5093191;28;20171;-58
2022/08/18 02:26:08;;;;;;;4.13;3.83;;;;;;;24.54;56.74;97852.78;5092559;28;20309;-58
2022/08/18 02:28:34;;;;;;;5.28;4.10;;;;;;;24.64;56.30;97859.31;5092711;28;20172;-58
2022/08/18 02:31:11;;;;;;;4.45;4.03;;;;;;;24.68;56.38;97852.56;5092158;28;20175;-58
2022/08/18 02:33:37;;;;;;;4.32;3.78;;;;;;;24.73;56.20;97860.72;5092403;28;20160;-58
2022/08/18 02:36:03;;;;;;;5.68;4.05;;;;;;;24.78;55.86;97863.56;5092685;28;20205;-58
2022/08/18 02:38:29;;;;;;;5.05;4.43;;;;;;;24.76;55.92;97855.03;5092389;28;20664;-57
2022/08/18 02:41:00;;;;;;;5.55;3.97;;;;;;;24.74;56.08;97857.03;5092351;28;20179;-58
2022/08/18 02:43:26;;;;;;;6.88;4.25;;;;;;;24.75;55.94;97848.13;5092601;28;20156;-58
2022/08/18 02:45:51;;;;;;;4.65;4.13;;;;;;;24.73;55.96;97850.13;5092489;28;20172;-58
2022/08/18 02:48:35;;;;;;;5.97;4.65;;;;;;;24.70;55.97;97850.56;5092190;28;20242;-58
2022/08/18 02:51:14;;;;;;;6.60;4.25;;;;;;;24.67;56.31;97856.25;5092185;28;20530;-58
2022/08/18 02:53:42;;;;;;;4.50;4.10;;;;;;;24.62;56.48;97858.69;5092205;28;20226;-58
2022/08/18 02:56:23;;;;;;;4.88;4.07;;;;;;;24.64;56.67;97861.97;5092409;28;20184;-58
2022/08/18 02:58:52;;;;;;;4.55;4.25;;;;;;;24.62;56.47;97864.00;5092366;28;20322;-58
2022/08/18 03:01:30;;;;;;;4.72;4.05;;;;;;;24.55;56.84;97859.72;5092359;28;20233;-58
2022/08/18 03:03:57;;;;;;;5.00;4.20;;;;;;;24.21;57.32;97825.56;5092371;28;20250;-58
2022/08/18 03:06:24;;;;;;;7.63;4.22;;;;;;;24.20;57.68;97867.06;5092326;28;20175;-57
2022/08/18 03:08:51;;;;;;;5.43;4.68;;;;;;;24.14;58.16;97862.56;5092180;28;20199;-57
2022/08/18 03:11:19;;;;;;;4.75;4.25;;;;;;;24.20;57.74;97867.06;5091987;28;20172;-58
2022/08/18 03:13:45;;;;;;;5.57;5.05;;;;;;;24.24;57.61;97870.94;5092020;28;20172;-58
2022/08/18 03:16:11;;;;;;;5.13;4.10;;;;;;;24.20;57.97;97859.13;5091976;28;20595;-58
2022/08/18 03:18:37;;;;;;;5.68;4.50;;;;;;;24.20;58.18;97863.63;5092222;28;20183;-58
2022/08/18 03:21:06;;;;;;;4.65;4.20;;;;;;;24.35;57.75;97857.09;5092493;28;20172;-58
2022/08/18 03:23:32;;;;;;;5.40;4.07;;;;;;;24.44;57.58;97866.44;5091931;28;20210;-58
2022/08/18 03:25:57;;;;;;;6.03;4.38;;;;;;;24.55;57.35;97862.38;5091950;28;20207;-58
2022/08/18 03:28:23;;;;;;;5.55;4.28;;;;;;;24.51;57.61;97869.06;5091797;28;20172;-57
2022/08/18 03:30:48;;;;;;;6.80;4.43;;;;;;;24.47;57.89;97871.31;5091878;28;20583;-57
2022/08/18 03:33:14;;;;;;;4.40;3.97;;;;;;;24.40;57.79;97878.47;5092090;28;20552;-57
2022/08/18 03:35:40;;;;;;;4.90;4.30;;;;;;;24.34;58.14;97870.50;5091778;28;20217;-57
2022/08/18 03:38:06;;;;;;;6.10;4.45;;;;;;;24.23;58.36;97872.97;5092025;28;20566;-58
2022/08/18 03:40:31;;;;;;;5.53;4.40;;;;;;;24.19;58.51;97869.91;5091989;28;20179;-58
2022/08/18 03:42:57;;;;;;;4.55;4.15;;;;;;;24.20;58.05;97864.41;5095178;28;20178;-57
2022/08/18 03:45:23;;;;;;;7.43;4.20;;;;;;;24.23;58.30;97882.53;5095860;28;20253;-58
2022/08/18 03:47:51;;;;;;;4.75;4.32;;;;;;;24.28;58.27;97877.44;5095599;28;20171;-58
2022/08/18 03:50:18;;;;;;;4.68;4.38;;;;;;;24.30;57.30;97880.69;5096540;28;20215;-57
2022/08/18 03:52:47;;;;;;;4.70;4.40;;;;;;;24.38;56.95;97879.69;5095482;28;20207;-57
2022/08/18 03:55:16;;;;;;;5.47;4.10;;;;;;;24.37;56.94;97880.69;5095682;28;20259;-57
2022/08/18 03:57:42;;;;;;;5.15;4.35;;;;;;;24.41;56.87;97889.84;5095589;28;20180;-57
2022/08/18 04:00:09;;;;;;;5.20;4.70;;;;;;;24.41;57.33;97888.00;5095350;28;20176;-57
2022/08/18 04:02:34;;;;;;;4.50;4.15;;;;;;;24.47;57.39;97889.84;5095517;28;20172;-57
2022/08/18 04:05:00;;;;;;;6.45;4.53;;;;;;;24.44;56.61;97887.59;5095807;28;20182;-58
2022/08/18 04:07:25;;;;;;;6.97;4.55;;;;;;;24.46;56.87;97884.75;5095489;28;20174;-57
2022/08/18 04:09:50;;;;;;;4.43;4.13;;;;;;;24.44;57.84;97884.16;5095265;28;20283;-57
2022/08/18 04:12:16;;;;;;;4.22;3.92;;;;;;;24.47;57.90;97895.13;5095044;28;20168;-57
2022/08/18 04:14:46;;;;;;;5.68;4.30;;;;;;;24.38;57.67;97898.19;5095312;28;20178;-57
2022/08/18 04:17:12;;;;;;;5.00;4.50;;;;;;;24.38;57.95;97888.41;5095245;28;20222;-58
2022/08/18 04:19:38;;;;;;;5.63;4.75;;;;;;;24.32;57.91;97873.34;5095535;28;20171;-57
2022/08/18 04:22:04;;;;;;;4.95;4.55;;;;;;;24.43;57.57;97880.69;5095119;28;20215;-58
2022/08/18 04:24:33;;;;;;;4.65;4.25;;;;;;;24.50;57.34;97888.63;5094886;28;20721;-57
2022/08/18 04:27:00;;;;;;;4.88;4.38;;;;;;;24.53;57.36;97896.13;5095136;28;20172;-57
2022/08/18 04:29:27;;;;;;;7.60;4.72;;;;;;;24.56;57.31;97899.19;5094960;28;20199;-58
2022/08/18 04:31:53;;;;;;;5.07;4.47;;;;;;;24.56;57.53;97896.53;5095003;28;20179;-57
2022/08/18 04:34:21;;;;;;;4.75;4.35;;;;;;;24.61;57.60;97888.81;5094919;28;20357;-57
2022/08/18 04:36:47;;;;;;;7.30;4.78;;;;;;;24.65;57.49;97887.41;5094892;28;20238;-58
2022/08/18 04:39:13;;;;;;;6.75;4.78;;;;;;;24.75;57.14;97897.56;5094872;28;20242;-57
2022/08/18 04:41:42;;;;;;;4.55;4.25;;;;;;;24.85;57.56;97897.97;5094817;28;20187;-57
2022/08/18 04:44:09;;;;;;;6.65;4.53;;;;;;;24.96;57.18;97903.41;5094417;28;20179;-58
2022/08/18 04:46:46;;;;;;;7.97;5.07;;;;;;;25.03;57.11;97898.91;5094332;28;20188;-57
2022/08/18 04:49:12;;;;;;;6.57;4.60;;;;;;;25.07;57.46;97900.13;5094569;28;20565;-57
2022/08/18 04:54:39;;;;;;;5.03;4.53;;;;;;;25.29;57.14;97896.22;5094894;28;20596;-58
2022/08/18 04:57:12;;;;;;;4.85;4.45;;;;;;;25.26;57.44;97903.78;5094572;28;20171;-58
2022/08/18 04:59:40;;;;;;;4.53;4.13;;;;;;;25.35;57.06;97903.34;5094457;28;20167;-58
2022/08/18 05:02:07;;;;;;;4.90;4.40;;;;;;;25.48;56.05;97903.28;5094071;28;20677;-57
2022/08/18 05:04:37;;;;;;;4.97;4.57;;;;;;;25.41;55.36;97909.63;5094344;28;20191;-58
2022/08/18 05:07:09;;;;;;;9.73;4.40;;;;;;;25.40;55.00;97914.13;5094065;28;20646;-58
2022/08/18 05:09:36;;;;;;;5.32;4.38;;;;;;;25.18;54.85;97875.66;5094681;28;20192;-58
2022/08/18 05:12:03;;;;;;;4.70;4.35;;;;;;;25.41;55.67;97912.25;5094258;28;20225;-57
2022/08/18 05:14:30;;;;;;;4.88;4.40;;;;;;;25.46;56.16;97910.63;5093884;28;20175;-57
2022/08/18 05:17:02;;;;;;;4.70;4.40;;;;;;;25.56;55.35;97911.00;5094155;28;20230;-58
2022/08/18 05:19:29;;;;;;;5.18;4.75;;;;;;;25.69;54.60;97895.03;5093862;28;20168;-58
2022/08/18 05:21:56;;;;;;;7.10;4.53;;;;;;;25.68;54.57;97885.44;5093684;28;20612;-57
2022/08/18 05:24:24;;;;;;;4.93;4.53;;;;;;;25.91;54.70;97904.31;5093722;28;20636;-58
2022/08/18 05:26:50;;;;;;;4.30;4.00;;;;;;;26.04;54.37;97908.69;5093922;28;20180;-57
2022/08/18 05:29:16;;;;;;;4.93;4.20;;;;;;;26.19;53.88;97917.16;5093515;28;20223;-57
2022/08/18 05:31:42;;;;;;;5.20;4.50;;;;;;;26.22;53.49;97898.97;5093591;28;20167;-57
2022/08/18 05:34:07;;;;;;;5.13;4.30;;;;;;;26.38;53.43;97906.41;5094306;28;20696;-57
2022/08/18 05:36:48;;;;;;;4.60;4.22;;;;;;;26.46;53.22;97902.66;5093441;28;20622;-58
2022/08/18 05:39:31;;;;;;;6.57;4.32;;;;;;;26.59;52.75;97903.38;5093729;28;20160;-58
2022/08/18 05:42:01;;;;;;;6.45;4.75;;;;;;;26.70;52.27;97893.91;5093699;28;20248;-58
2022/08/18 05:44:33;;;;;;;4.63;4.22;;;;;;;26.73;52.03;97902.25;5093942;28;20160;-58
2022/08/18 05:47:05;;;;;;;5.20;4.60;;;;;;;26.82;51.70;97903.56;5093264;28;20172;-58
2022/08/18 05:49:34;;;;;;;4.80;3.97;;;;;;;26.87;51.54;97902.94;5093469;28;20203;-57
2022/08/18 05:52:14;;;;;;;8.27;4.40;;;;;;;26.95;51.89;97903.44;5092953;28;20689;-58
2022/08/18 05:57:50;;;;;;;5.13;4.60;;;;;;;27.15;50.70;97904.06;5093666;28;20162;-58
2022/08/18 06:00:17;;;;;;;6.97;4.60;;;;;;;27.25;51.01;97911.53;5093050;28;20160;-58
2022/08/18 06:02:50;;;;;;;5.90;4.30;;;;;;;27.39;50.84;97905.00;5092937;28;20191;-59
2022/08/18 06:05:27;;;;;;;4.65;4.20;;;;;;;27.50;50.13;97905.09;5092654;28;20175;-59
2022/08/18 06:07:57;;;;;;;5.43;4.28;;;;;;;27.65;50.05;97905.50;5093230;28;20163;-58
2022/08/18 06:10:24;;;;;;;5.65;4.95;;;;;;;27.47;49.71;97865.66;5093056;28;20183;-59
2022/08/18 06:12:53;;;;;;;8.63;6.70;;;;;;;27.76;49.57;97907.38;5092816;28;20180;-56
2022/08/18 06:15:36;;;;;;;5.60;5.00;;;;;;;27.79;49.45;97907.00;5093050;28;20180;-57
2022/08/18 06:18:23;;;;;;;8.10;4.38;;;;;;;27.80;49.85;97908.59;5092724;28;20175;-58
2022/08/18 06:21:18;;;;;;;6.35;4.35;;;;;;;27.76;49.97;97903.94;5092698;28;20171;-58
2022/08/18 06:24:01;;;;;;;6.43;4.30;;;;;;;27.94;49.89;97915.34;5092580;28;20730;-58
2022/08/18 06:26:56;;;;;;;6.05;4.50;;;;;;;28.14;49.32;97921.22;5093190;28;20218;-58
2022/08/18 06:29:28;;;;;;;9.43;4.20;;;;;;;28.35;48.28;97926.00;5070565;28;20212;-58
2022/08/18 06:32:09;;;;;;;7.30;4.50;;;;;;;28.43;48.21;97928.38;5092751;28;20183;-58
2022/08/18 06:34:56;;;;;;;4.70;4.22;;;;;;;28.55;47.83;97917.72;5092489;28;20156;-57
2022/08/18 06:37:30;;;;;;;4.43;3.95;;;;;;;28.65;47.38;97928.63;5093011;28;20168;-57
2022/08/18 06:39:56;;;;;;;4.57;4.18;;;;;;;28.62;46.94;97915.78;5092598;28;20217;-57
2022/08/18 06:42:29;;;;;;;5.47;4.40;;;;;;;28.54;47.67;97913.44;5092341;28;20191;-57
2022/08/18 06:45:02;;;;;;;6.03;4.55;;;;;;;28.60;48.08;97921.31;5092929;28;20160;-58
2022/08/18 06:47:53;;;;;;;4.25;3.90;;;;;;;28.71;46.42;97923.19;5092145;28;20175;-57
2022/08/18 06:50:45;;;;;;;5.13;3.83;;;;;;;28.89;46.02;97931.06;5092181;28;20245;-57
2022/08/18 06:53:10;;;;;;;5.70;4.00;;;;;;;29.14;45.55;97933.50;5077826;28;20230;-58
2022/08/18 06:55:39;;;;;;;5.85;4.13;;;;;;;29.21;46.19;97942.19;5092155;28;20167;-57
2022/08/18 06:58:21;;;;;;;5.03;4.07;;;;;;;29.37;43.59;97936.13;5092051;28;20645;-57
2022/08/18 07:01:06;;;;;;;4.40;4.00;;;;;;;29.56;43.25;97926.97;5092068;28;20168;-58
2022/08/18 07:03:38;;;;;;;3.80;3.50;;;;;;;29.71;42.92;97935.25;5092421;28;20160;-58
2022/08/18 07:06:03;;;;;;;3.85;3.45;;;;;;;29.91;42.43;97931.09;5092075;28;20180;-58
2022/08/18 07:08:36;;;;;;;5.28;3.88;;;;;;;30.07;42.48;97934.88;5092017;28;20187;-59
2022/08/18 07:11:13;;;;;;;6.82;3.95;;;;;;;30.24;41.16;97928.53;5091930;28;20258;-59
2022/08/18 07:13:43;;;;;;;5.10;3.72;;;;;;;30.40;40.78;97929.59;5092008;28;20636;-59
2022/08/18 07:16:31;;;;;;;5.82;3.80;;;;;;;30.53;39.98;97934.63;5092272;28;20180;-58
2022/08/18 07:19:11;;;;;;;3.75;3.40;;;;;;;30.61;40.36;97927.00;5096758;28;20160;-59
2022/08/18 07:21:39;;;;;;;5.25;3.88;;;;;;;30.70;39.76;97924.78;5096452;28;20166;-58
2022/08/18 07:24:12;;;;;;;5.70;4.25;;;;;;;30.71;39.47;97919.19;5096276;28;20536;-59
2022/08/18 07:26:59;;;;;;;3.97;3.55;;;;;;;30.84;39.66;97937.56;5096022;28;20179;-59
2022/08/18 07:29:25;;;;;;;3.95;3.65;;;;;;;30.87;39.69;97926.38;5096657;28;20295;-59
2022/08/18 07:31:52;;;;;;;6.50;3.72;;;;;;;31.00;39.50;97926.03;5095924;28;20262;-59
2022/08/18 07:34:24;;;;;;;6.43;3.97;;;;;;;31.02;39.11;97929.25;5095834;28;20711;-58
2022/08/18 07:36:56;;;;;;;6.28;3.55;;;;;;;31.13;37.88;97931.03;5096656;28;20175;-59
2022/08/18 07:39:30;;;;;;;3.80;3.50;;;;;;;31.14;38.15;97932.63;5096381;28;20250;-58
2022/08/18 07:41:59;;;;;;;6.65;3.60;;;;;;;31.20;38.29;97936.22;5096301;28;20639;-58
2022/08/18 07:44:39;;;;;;;4.07;3.55;;;;;;;31.22;38.33;97937.59;5095660;28;20175;-59
2022/08/18 07:47:30;;;;;;;11.57;4.38;;;;;;;31.24;37.67;97940.03;5095765;28;20685;-58
2022/08/18 07:49:57;;;;;;;5.93;3.72;;;;;;;31.30;37.64;97941.72;5095521;28;20195;-59
2022/08/18 07:52:42;;;;;;;4.18;3.20;;;;;;;31.31;37.33;97930.75;5095319;28;20741;-58
2022/08/18 07:55:32;;;;;;;4.10;3.63;;;;;;;31.34;37.85;97932.94;5095808;28;20160;-59
2022/08/18 07:58:25;;;;;;;4.90;3.55;;;;;;;31.41;38.18;97938.91;5095696;28;20156;-59
2022/08/18 08:00:57;;;;;;;3.80;3.47;;;;;;;31.47;36.16;97935.25;5095673;28;20544;-59
2022/08/18 08:03:40;;;;;;;4.32;3.63;;;;;;;31.55;37.23;97934.00;5095359;28;20578;-58
2022/08/18 08:06:08;;;;;;;4.65;3.65;;;;;;;31.62;37.15;97938.13;5095254;28;20245;-59
2022/08/18 08:08:55;;;;;;;5.57;3.90;;;;;;;31.68;35.96;97934.44;5077212;28;20608;-59
2022/08/18 08:11:43;;;;;;;4.18;3.50;;;;;;;31.77;36.40;97934.84;5095423;28;20159;-59
2022/08/18 08:14:27;;;;;;;3.90;3.60;;;;;;;31.79;36.26;97930.84;5095448;28;20156;-59
2022/08/18 08:17:04;;;;;;;4.05;3.72;;;;;;;31.81;35.38;97936.75;5095291;28;20655;-58
2022/08/18 08:19:39;;;;;;;4.82;3.85;;;;;;;31.90;36.15;97923.75;5076909;28;20521;-59
2022/08/18 08:22:07;;;;;;;7.22;3.88;;;;;;;31.93;36.16;97926.72;5095390;28;20179;-59
2022/08/18 08:25:04;;;;;;;6.53;3.80;;;;;;;31.97;36.17;97929.69;5094903;28;20225;-59
2022/08/18 08:27:49;;;;;;;3.67;3.38;;;;;;;31.98;36.00;97918.75;5094546;28;20167;-59
2022/08/18 08:30:18;;;;;;;5.93;3.63;;;;;;;32.06;35.78;97920.94;5095033;28;20242;-58
2022/08/18 08:33:15;;;;;;;3.97;3.67;;;;;;;32.07;35.58;97935.94;5094724;28;20566;-59
2022/08/18 08:35:49;;;;;;;4.47;3.55;;;;;;;32.04;35.59;97915.06;5093834;28;20192;-58
2022/08/18 08:38:23;;;;;;;4.72;3.75;;;;;;;32.05;36.14;97930.06;5095262;28;20167;-59
2022/08/18 08:40:51;;;;;;;4.60;3.92;;;;;;;32.17;36.21;97927.22;5094912;28;20165;-59
2022/08/18 08:43:28;;;;;;;5.20;3.58;;;;;;;32.19;36.62;97914.38;5094765;28;20208;-59
2022/08/18 08:46:02;;;;;;;4.68;4.13;;;;;;;32.28;35.49;97931.63;5094789;28;20167;-58
2022/08/18 08:48:33;;;;;;;7.47;3.63;;;;;;;32.31;33.91;97933.81;5095018;28;20175;-58
2022/08/18 08:51:17;;;;;;;6.53;3.45;;;;;;;32.29;34.45;97930.59;5094724;28;20156;-58
2022/08/18 08:53:53;;;;;;;11.95;3.88;;;;;;;32.29;33.80;97926.03;5094555;28;20192;-58
2022/08/18 08:56:23;;;;;;;7.40;3.70;;;;;;;32.31;33.81;97929.28;5094530;28;20250;-58
2022/08/18 08:58:55;;;;;;;4.93;3.60;;;;;;;32.31;33.48;97921.25;5094232;28;20167;-58
2022/08/18 09:01:29;;;;;;;5.82;3.95;;;;;;;32.31;33.67;97921.25;5094183;28;20176;-58
2022/08/18 09:04:25;;;;;;;4.75;3.55;;;;;;;32.35;33.63;97918.84;5094458;28;20549;-58
2022/08/18 09:07:15;;;;;;;4.97;3.72;;;;;;;32.40;33.43;97922.38;5094034;28;20584;-57
2022/08/18 09:10:01;;;;;;;5.97;3.70;;;;;;;32.38;34.11;97924.50;5094268;28;20183;-58
2022/08/18 09:13:08;;;;;;;4.88;3.58;;;;;;;32.42;34.08;97924.81;5094277;28;20175;-58
2022/08/18 09:15:56;;;;;;;5.60;3.67;;;;;;;32.47;34.88;97914.13;5094479;28;20632;-58
2022/08/18 09:18:46;;;;;;;6.85;4.05;;;;;;;32.51;34.47;97916.03;5094187;28;20164;-58
2022/08/18 09:21:29;;;;;;;8.25;4.10;;;;;;;32.59;35.27;97920.91;5094073;28;20651;-58
2022/08/18 09:24:06;;;;;;;4.45;3.70;;;;;;;32.66;33.44;97921.53;5093682;28;20156;-58
2022/08/18 09:26:48;;;;;;;6.65;3.70;;;;;;;32.68;34.16;97919.38;5093693;28;20600;-58
2022/08/18 09:29:23;;;;;;;5.22;3.90;;;;;;;32.65;34.26;97908.38;5094125;28;20245;-58
2022/08/18 09:32:17;;;;;;;4.28;3.90;;;;;;;32.65;34.43;97903.81;5094180;28;20642;-58
2022/08/18 09:35:22;;;;;;;6.75;4.20;;;;;;;32.74;34.36;97904.94;5093727;28;20160;-58
2022/08/18 09:43:51;;;;;;;5.60;4.10;;;;;;;32.86;33.50;97894.06;5093968;28;20668;-58
2022/08/18 09:46:42;;;;;;;6.25;4.32;;;;;;;32.95;32.93;97912.09;5093301;28;20168;-58
2022/08/18 09:49:23;;;;;;;3.60;3.30;;;;;;;33.00;33.03;97909.44;5093398;28;20198;-58
2022/08/18 09:51:51;;;;;;;4.40;3.47;;;;;;;33.03;32.52;97902.75;5092913;28;20554;-58
2022/08/18 09:54:23;;;;;;;4.75;4.25;;;;;;;33.05;32.74;97897.94;5093419;28;20179;-58
2022/08/18 09:56:48;;;;;;;6.30;3.80;;;;;;;33.10;30.46;97911.38;5093423;28;20566;-58
2022/08/18 09:59:51;;;;;;;4.30;4.00;;;;;;;33.07;32.01;97909.22;5092976;28;20194;-58
2022/08/18 10:02:26;;;;;;;4.13;3.40;;;;;;;33.13;31.61;97894.75;4991498;28;20710;-58
2022/08/18 10:05:14;;;;;;;3.97;3.65;;;;;;;33.23;32.18;97902.84;5079518;28;20258;-59
2022/08/18 10:07:42;;;;;;;3.50;3.30;;;;;;;33.33;31.12;97895.69;5092954;28;20218;-58
2022/08/18 10:10:17;;;;;;;4.82;3.88;;;;;;;33.42;31.64;97888.75;5092820;28;20187;-58
2022/08/18 10:13:10;;;;;;;5.40;3.42;;;;;;;33.56;31.34;97889.06;5093189;28;20185;-58
2022/08/18 10:15:51;;;;;;;4.35;3.67;;;;;;;33.66;30.96;97881.84;5093091;28;20674;-58
2022/08/18 10:18:19;;;;;;;5.03;4.25;;;;;;;33.66;31.67;97873.00;5093066;28;20186;-58
2022/08/18 10:21:07;;;;;;;4.15;3.53;;;;;;;33.75;30.83;97882.16;5092965;28;20170;-58
2022/08/18 10:23:53;;;;;;;5.43;3.78;;;;;;;33.84;31.08;97880.56;5092590;28;20156;-58
2022/08/18 10:26:30;;;;;;;5.53;3.97;;;;;;;33.92;31.03;97877.38;5093460;28;20156;-58
2022/08/18 10:29:00;;;;;;;6.03;3.67;;;;;;;34.01;31.20;97875.78;5092460;28;20336;-58
2022/08/18 10:31:27;;;;;;;6.78;4.20;;;;;;;34.13;31.20;97881.69;5092816;28;20224;-58
2022/08/18 10:33:55;;;;;;;5.53;3.83;;;;;;;34.21;30.34;97878.50;5092733;28;20172;-58
2022/08/18 10:36:45;;;;;;;9.55;3.80;;;;;;;34.25;30.17;97875.00;5092634;28;20205;-58
2022/08/18 10:39:18;;;;;;;5.97;3.80;;;;;;;34.42;30.66;97872.88;5092392;28;20234;-58
2022/08/18 10:42:09;;;;;;;6.05;3.88;;;;;;;34.42;29.76;97878.25;5092971;28;20668;-59
2022/08/18 10:44:42;;;;;;;4.70;3.80;;;;;;;34.49;30.39;97870.72;5092669;28;20218;-59
2022/08/18 10:47:19;;;;;;;4.05;3.72;;;;;;;34.56;29.20;97865.06;5092251;28;20186;-59
2022/08/18 10:49:48;;;;;;;5.80;3.80;;;;;;;34.63;29.67;97877.13;5092520;28;20222;-59
2022/08/18 10:52:21;;;;;;;5.57;3.60;;;;;;;34.82;29.75;97872.84;5092025;28;20298;-58
2022/08/18 10:55:05;;;;;;;4.47;3.90;;;;;;;35.05;28.80;97877.63;5092831;28;20207;-58
2022/08/18 10:57:49;;;;;;;4.68;3.88;;;;;;;35.24;28.68;97873.28;5092459;28;20532;-59
2022/08/18 11:00:19;;;;;;;4.95;3.60;;;;;;;35.36;28.44;97872.97;5092214;28;20152;-59
2022/08/18 11:02:53;;;;;;;5.07;3.97;;;;;;;35.47;28.46;97874.53;5092180;28;20183;-59
2022/08/18 11:05:24;;;;;;;4.13;3.70;;;;;;;35.67;28.52;97875.22;5092444;28;20186;-59
2022/08/18 11:07:57;;;;;;;3.80;3.50;;;;;;;35.64;27.96;97851.56;5092391;28;20160;-59
2022/08/18 11:10:37;;;;;;;5.43;3.40;;;;;;;35.93;28.57;97863.25;5092253;28;20274;-59
2022/08/18 11:13:24;;;;;;;4.53;3.90;;;;;;;36.05;27.69;97869.09;5092654;28;20148;-59
2022/08/18 11:16:22;;;;;;;4.57;4.18;;;;;;;36.10;27.79;97852.91;5092608;28;20168;-59
2022/08/18 11:18:57;;;;;;;5.18;3.90;;;;;;;36.24;27.31;97861.19;5092590;28;20160;-60
2022/08/18 11:21:38;;;;;;;3.92;3.63;;;;;;;36.34;26.98;97872.69;5092284;28;20616;-59
2022/08/18 11:24:06;;;;;;;4.20;3.80;;;;;;;36.44;26.51;97864.50;5092115;28;20176;-59
2022/08/18 11:26:34;;;;;;;3.97;3.50;;;;;;;36.53;26.75;97865.50;5092664;28;20198;-59
2022/08/18 11:29:33;;;;;;;4.50;3.72;;;;;;;36.65;26.01;97855.16;5091818;28;20199;-59
2022/08/18 11:32:15;;;;;;;4.30;3.90;;;;;;;36.82;26.26;97857.44;5092210;28;20625;-59
2022/08/18 11:34:43;;;;;;;4.18;3.38;;;;;;;36.97;25.96;97862.66;5092108;28;20244;-59
2022/08/18 11:37:27;;;;;;;4.97;3.47;;;;;;;36.98;25.55;97865.06;5074405;28;20176;-59
2022/08/18 11:39:58;;;;;;;6.47;3.53;;;;;;;37.01;25.54;97853.69;5092030;28;20212;-59
2022/08/18 11:42:37;;;;;;;4.00;3.70;;;;;;;37.01;25.47;97840.19;5092063;28;20164;-59
2022/08/18 11:45:12;;;;;;;3.80;3.30;;;;;;;37.19;25.79;97846.78;5092065;28;20167;-59
2022/08/18 11:48:16;;;;;;;7.03;4.00;;;;;;;37.27;25.96;97857.75;5091867;28;20182;-59
2022/08/18 11:50:52;;;;;;;8.98;3.58;;;;;;;37.27;25.46;97841.53;5091921;28;20183;-59
2022/08/18 11:53:32;;;;;;;4.55;3.53;;;;;;;37.34;25.81;97847.38;5091517;28;20238;-59
2022/08/18 11:56:20;;;;;;;8.18;3.85;;;;;;;37.46;25.71;97842.38;5091571;28;20172;-59
2022/08/18 11:58:50;;;;;;;4.65;3.17;;;;;;;37.54;24.34;97836.34;5091876;28;20163;-59
2022/08/18 12:01:33;;;;;;;4.80;3.05;;;;;;;37.51;23.80;97846.88;5091643;28;20164;-58
2022/08/18 12:04:07;;;;;;;4.88;3.42;;;;;;;37.53;24.19;97833.91;5094902;28;20172;-59
2022/08/18 12:06:34;;;;;;;3.78;3.45;;;;;;;37.64;24.55;97825.41;5095594;28;20164;-59
2022/08/18 12:09:02;;;;;;;4.18;3.78;;;;;;;37.67;24.97;97824.00;5095415;28;20435;-59
2022/08/18 12:11:55;;;;;;;4.05;3.72;;;;;;;37.73;24.95;97818.25;5095119;28;20174;-59
2022/08/18 12:14:27;;;;;;;4.13;3.78;;;;;;;37.73;24.47;97829.06;5084753;28;20270;-59
2022/08/18 12:16:53;;;;;;;5.72;3.97;;;;;;;37.83;23.98;97834.28;5095081;28;20172;-59
2022/08/18 12:19:19;;;;;;;5.78;4.20;;;;;;;37.88;24.54;97819.91;5095293;28;20178;-58
2022/08/18 12:21:50;;;;;;;4.80;3.70;;;;;;;37.99;24.58;97824.88;5095248;28;20225;-58
2022/08/18 12:24:25;;;;;;;5.53;4.00;;;;;;;38.15;24.78;97825.44;5076892;28;20176;-59